Time;durP1;ratioP1;P1;durP2;ratioP2;P2;SDS_P1;SDS_P2;PMS_P1;PMS_P2;Temp;Humidity;BMP_temperature;BMP_pressure;BME280_temperature;BME280_humidity;BME280_pressure;Samples;Min_cycle;Max_cycle;Signal;HPM_P1;HPM_P2
2021/01/14 00:02:26;;;;;;;9.70;1.70;;;;;;;;;;5051944;28;20060;-78
2021/01/14 00:04:52;;;;;;;11.73;2.53;;;;;;;;;;5052221;28;20142;-78
2021/01/14 00:07:19;;;;;;;11.55;2.70;;;;;;;;;;5052175;28;20009;-79
2021/01/14 00:09:45;;;;;;;13.45;2.15;;;;;;;;;;5052063;28;20033;-79
2021/01/14 00:12:11;;;;;;;12.38;2.40;;;;;;;;;;5053528;28;20029;-79
2021/01/14 00:14:37;;;;;;;10.80;2.65;;;;;;;;;;5053618;28;20017;-79
2021/01/14 00:17:03;;;;;;;12.30;2.75;;;;;;;;;;5053278;28;20017;-79
2021/01/14 00:19:29;;;;;;;15.23;2.60;;;;;;;;;;5052258;28;20058;-79
2021/01/14 00:21:55;;;;;;;42.90;11.05;;;;;;;;;;5052087;28;20028;-79
2021/01/14 00:24:21;;;;;;;12.85;2.92;;;;;;;;;;5053211;28;20033;-79
2021/01/14 00:26:47;;;;;;;60.30;19.17;;;;;;;;;;5052131;28;20055;-79
2021/01/14 00:29:13;;;;;;;41.00;10.45;;;;;;;;;;5051654;28;20056;-79
2021/01/14 00:31:39;;;;;;;17.75;4.68;;;;;;;;;;5051967;28;20025;-79
2021/01/14 00:34:05;;;;;;;13.55;3.10;;;;;;;;;;5053098;28;20488;-79
2021/01/14 00:37:50;;;;;;;18.20;4.13;;;;;;;;;;5051963;28;20067;-79
2021/01/14 00:39:22;;;;;;;12.63;3.67;;;;;;;;;;5052814;28;20079;-79
2021/01/14 00:41:48;;;;;;;17.85;3.45;;;;;;;;;;5051256;28;20076;-79
2021/01/14 00:44:14;;;;;;;17.67;3.08;;;;;;;;;;5053176;28;20040;-78
2021/01/14 00:46:40;;;;;;;10.35;1.58;;;;;;;;;;5052576;28;20025;-79
2021/01/14 00:49:06;;;;;;;10.75;1.85;;;;;;;;;;5051246;28;20513;-79
2021/01/14 00:51:35;;;;;;;17.20;5.63;;;;;;;;;;5051605;28;20106;-79
2021/01/14 00:54:01;;;;;;;23.75;5.35;;;;;;;;;;5051363;28;20404;-79
2021/01/14 00:56:34;;;;;;;41.85;10.93;;;;;;;;;;5052568;28;20041;-79
2021/01/14 00:59:01;;;;;;;18.98;5.65;;;;;;;;;;5053136;28;20027;-78
2021/01/14 01:01:27;;;;;;;21.38;4.93;;;;;;;;;;5052656;28;20021;-79
2021/01/14 01:03:53;;;;;;;40.20;8.57;;;;;;;;;;5051575;28;20059;-78
2021/01/14 01:06:23;;;;;;;61.28;15.40;;;;;;;;;;5052535;28;20086;-78
2021/01/14 01:08:49;;;;;;;53.60;13.82;;;;;;;;;;5051333;28;20108;-78
2021/01/14 01:11:15;;;;;;;25.58;5.22;;;;;;;;;;5052397;28;20111;-78
2021/01/14 01:13:41;;;;;;;16.90;3.40;;;;;;;;;;5051288;28;20052;-78
2021/01/14 01:16:07;;;;;;;18.20;3.15;;;;;;;;;;5051062;28;20052;-78
2021/01/14 01:18:33;;;;;;;13.32;2.83;;;;;;;;;;5050688;28;20085;-78
2021/01/14 01:21:00;;;;;;;13.27;2.08;;;;;;;;;;5051233;28;20016;-79
2021/01/14 01:23:26;;;;;;;15.35;2.58;;;;;;;;;;5069516;28;20099;-79
2021/01/14 01:25:52;;;;;;;22.83;4.72;;;;;;;;;;5071123;28;20040;-79
2021/01/14 01:28:18;;;;;;;18.55;3.00;;;;;;;;;;5070653;28;20489;-79
2021/01/14 01:30:44;;;;;;;8.80;1.60;;;;;;;;;;5071207;28;20020;-78
2021/01/14 01:33:10;;;;;;;10.65;1.95;;;;;;;;;;5071884;28;20024;-78
2021/01/14 01:35:36;;;;;;;9.82;2.15;;;;;;;;;;5071114;28;20016;-79
2021/01/14 01:38:02;;;;;;;18.38;5.53;;;;;;;;;;5071052;28;20163;-78
2021/01/14 01:40:28;;;;;;;18.80;4.82;;;;;;;;;;5070791;28;20028;-79
2021/01/14 01:42:57;;;;;;;14.43;3.40;;;;;;;;;;5070617;28;20055;-79
2021/01/14 01:45:24;;;;;;;9.23;2.17;;;;;;;;;;5070764;28;20017;-79
2021/01/14 01:47:50;;;;;;;9.77;1.50;;;;;;;;;;5070785;28;20020;-79
2021/01/14 01:50:19;;;;;;;7.95;1.83;;;;;;;;;;5070531;28;20021;-79
2021/01/14 01:52:45;;;;;;;12.25;1.95;;;;;;;;;;5070875;28;20079;-79
2021/01/14 01:55:11;;;;;;;10.68;1.65;;;;;;;;;;5072242;28;20048;-79
2021/01/14 01:57:37;;;;;;;9.13;1.83;;;;;;;;;;5070516;28;20048;-79
2021/01/14 02:00:04;;;;;;;10.02;1.70;;;;;;;;;;5071838;28;20040;-79
2021/01/14 02:02:30;;;;;;;7.78;1.45;;;;;;;;;;5070330;28;20040;-79
2021/01/14 02:04:57;;;;;;;13.18;3.00;;;;;;;;;;5070696;28;20017;-79
2021/01/14 02:07:38;;;;;;;7.40;1.50;;;;;;;;;;5071898;28;20122;-79
2021/01/14 02:10:08;;;;;;;6.28;1.50;;;;;;;;;;5072045;28;20024;-80
2021/01/14 02:12:39;;;;;;;11.77;1.40;;;;;;;;;;5070703;28;20024;-79
2021/01/14 02:15:06;;;;;;;7.20;1.40;;;;;;;;;;5072254;28;20052;-79
2021/01/14 02:17:32;;;;;;;7.63;1.45;;;;;;;;;;5070525;28;20055;-79
2021/01/14 02:20:01;;;;;;;12.38;1.45;;;;;;;;;;5070492;28;20051;-79
2021/01/14 02:22:37;;;;;;;9.57;1.45;;;;;;;;;;5061175;28;20024;-79
2021/01/14 02:25:09;;;;;;;6.88;1.15;;;;;;;;;;5050600;28;20338;-79
2021/01/14 02:27:36;;;;;;;9.18;1.58;;;;;;;;;;5050579;28;20028;-78
2021/01/14 02:30:03;;;;;;;9.40;1.75;;;;;;;;;;5052260;28;20074;-78
2021/01/14 02:32:29;;;;;;;15.30;1.88;;;;;;;;;;5053059;28;20534;-78
2021/01/14 02:34:55;;;;;;;7.38;1.60;;;;;;;;;;5054042;28;20017;-78
2021/01/14 02:37:21;;;;;;;6.80;1.85;;;;;;;;;;5053581;28;20071;-78
2021/01/14 02:39:47;;;;;;;6.15;1.52;;;;;;;;;;5054206;28;20017;-78
2021/01/14 02:42:13;;;;;;;6.72;1.30;;;;;;;;;;5054950;28;20045;-78
2021/01/14 02:44:39;;;;;;;13.13;1.95;;;;;;;;;;5054037;28;20056;-79
2021/01/14 02:47:06;;;;;;;4.78;1.33;;;;;;;;;;5054037;28;20043;-79
2021/01/14 02:49:34;;;;;;;9.68;1.20;;;;;;;;;;5053760;28;20020;-78
2021/01/14 02:52:03;;;;;;;7.53;1.23;;;;;;;;;;5053898;28;20056;-78
2021/01/14 02:54:31;;;;;;;7.13;1.40;;;;;;;;;;5054993;28;20106;-78
2021/01/14 02:56:57;;;;;;;7.05;1.17;;;;;;;;;;5053784;28;20021;-78
2021/01/14 02:59:23;;;;;;;7.35;1.50;;;;;;;;;;5053577;28;20454;-78
2021/01/14 03:01:49;;;;;;;11.32;1.65;;;;;;;;;;5053820;28;20078;-78
2021/01/14 03:04:15;;;;;;;10.15;1.45;;;;;;;;;;5053590;28;20020;-78
2021/01/14 03:06:41;;;;;;;7.97;1.30;;;;;;;;;;5054931;28;20032;-78
2021/01/14 03:09:07;;;;;;;8.63;1.40;;;;;;;;;;5053536;28;20024;-78
2021/01/14 03:11:34;;;;;;;8.65;1.63;;;;;;;;;;5054293;28;20057;-78
2021/01/14 03:14:00;;;;;;;5.47;1.27;;;;;;;;;;5053539;28;20013;-78
2021/01/14 03:16:26;;;;;;;9.38;1.33;;;;;;;;;;5054495;28;20052;-78
2021/01/14 03:18:52;;;;;;;6.75;1.73;;;;;;;;;;5053436;28;20017;-79
2021/01/14 03:21:22;;;;;;;6.65;1.35;;;;;;;;;;5054416;28;20071;-79
2021/01/14 03:23:48;;;;;;;8.32;1.17;;;;;;;;;;5053330;28;20043;-79
2021/01/14 03:26:14;;;;;;;7.75;1.40;;;;;;;;;;5054703;28;20110;-79
2021/01/14 03:28:40;;;;;;;7.10;1.35;;;;;;;;;;5053304;28;20024;-79
2021/01/14 03:31:06;;;;;;;4.22;1.20;;;;;;;;;;5053172;28;20017;-79
2021/01/14 03:33:32;;;;;;;6.05;1.63;;;;;;;;;;5054138;28;20017;-79
2021/01/14 03:35:58;;;;;;;13.60;1.60;;;;;;;;;;5054473;28;20017;-79
2021/01/14 03:38:25;;;;;;;8.00;1.38;;;;;;;;;;5052576;28;20048;-79
2021/01/14 03:40:51;;;;;;;7.90;1.30;;;;;;;;;;5054444;28;20052;-79
2021/01/14 03:43:17;;;;;;;8.95;1.30;;;;;;;;;;5052467;28;20479;-79
2021/01/14 03:45:43;;;;;;;11.07;1.58;;;;;;;;;;5052926;28;20021;-79
2021/01/14 03:48:09;;;;;;;4.22;1.13;;;;;;;;;;5053986;28;20017;-79
2021/01/14 03:50:35;;;;;;;6.35;2.22;;;;;;;;;;5052595;28;20499;-79
2021/01/14 03:53:01;;;;;;;10.95;2.03;;;;;;;;;;5052765;28;20060;-79
2021/01/14 03:55:27;;;;;;;8.13;2.00;;;;;;;;;;5052579;28;20045;-79
2021/01/14 03:57:53;;;;;;;9.68;1.50;;;;;;;;;;5054005;28;20388;-79
2021/01/14 04:00:19;;;;;;;12.23;1.35;;;;;;;;;;5052415;28;20086;-79
2021/01/14 04:02:45;;;;;;;8.23;1.60;;;;;;;;;;5052716;28;20365;-79
2021/01/14 04:05:12;;;;;;;9.60;1.50;;;;;;;;;;5052646;28;20454;-79
2021/01/14 04:07:38;;;;;;;4.13;1.27;;;;;;;;;;5053670;28;20017;-79
2021/01/14 04:10:05;;;;;;;6.70;1.10;;;;;;;;;;5052499;28;20021;-79
2021/01/14 04:12:31;;;;;;;6.57;1.27;;;;;;;;;;5053085;28;20496;-79
2021/01/14 04:15:00;;;;;;;8.98;1.38;;;;;;;;;;5052400;28;20461;-79
2021/01/14 04:17:26;;;;;;;6.93;1.30;;;;;;;;;;5052151;28;20017;-79
2021/01/14 04:19:53;;;;;;;8.85;1.50;;;;;;;;;;5052273;28;20017;-79
2021/01/14 04:22:19;;;;;;;8.50;2.17;;;;;;;;;;5061321;28;20495;-79
2021/01/14 04:24:45;;;;;;;8.43;1.75;;;;;;;;;;5072110;28;20058;-79
2021/01/14 04:27:11;;;;;;;6.32;1.00;;;;;;;;;;5072092;28;20017;-79
2021/01/14 04:29:37;;;;;;;6.40;1.40;;;;;;;;;;5071862;28;20025;-79
2021/01/14 04:32:03;;;;;;;6.00;1.27;;;;;;;;;;5073347;28;20055;-79
2021/01/14 04:34:29;;;;;;;7.90;2.00;;;;;;;;;;5071867;28;20012;-79
2021/01/14 04:36:59;;;;;;;7.75;1.50;;;;;;;;;;5073212;28;20017;-79
2021/01/14 04:39:25;;;;;;;;;;;;;;;;;;5073448;28;20024;-79
2021/01/14 04:41:55;;;;;;;6.22;1.15;;;;;;;;;;5071529;28;19919;-79
2021/01/14 04:44:21;;;;;;;5.70;1.33;;;;;;;;;;5071192;28;20016;-79
2021/01/14 04:46:49;;;;;;;5.72;1.33;;;;;;;;;;5071432;28;20039;-78
2021/01/14 04:49:18;;;;;;;6.03;1.05;;;;;;;;;;5071703;28;20059;-79
2021/01/14 04:51:46;;;;;;;8.00;1.52;;;;;;;;;;5072594;28;20029;-79
2021/01/14 04:54:16;;;;;;;7.53;1.30;;;;;;;;;;5072749;28;20048;-79
2021/01/14 04:56:46;;;;;;;5.55;1.33;;;;;;;;;;5071337;28;20407;-79
2021/01/14 04:59:15;;;;;;;4.55;0.95;;;;;;;;;;5071247;28;20017;-79
2021/01/14 05:01:42;;;;;;;6.78;1.20;;;;;;;;;;5071227;28;20478;-79
2021/01/14 05:04:10;;;;;;;6.63;2.08;;;;;;;;;;5071548;28;20021;-79
2021/01/14 05:06:39;;;;;;;9.95;1.65;;;;;;;;;;5072077;28;20399;-79
2021/01/14 05:09:06;;;;;;;6.45;1.30;;;;;;;;;;5071397;28;20031;-79
2021/01/14 05:11:44;;;;;;;8.65;1.20;;;;;;;;;;5071054;28;20028;-79
2021/01/14 05:14:11;;;;;;;7.97;1.38;;;;;;;;;;5071375;28;20155;-79
2021/01/14 05:16:37;;;;;;;6.60;1.30;;;;;;;;;;5071108;28;20074;-79
2021/01/14 05:19:03;;;;;;;7.22;1.17;;;;;;;;;;5071282;28;20090;-79
2021/01/14 05:21:33;;;;;;;9.57;3.05;;;;;;;;;;5072182;28;20025;-79
2021/01/14 05:24:13;;;;;;;6.53;1.10;;;;;;;;;;5072596;28;20027;-79
2021/01/14 05:26:39;;;;;;;4.45;1.20;;;;;;;;;;5072235;28;20096;-78
2021/01/14 05:29:15;;;;;;;7.70;1.08;;;;;;;;;;5071215;28;20030;-79
2021/01/14 05:31:41;;;;;;;5.90;0.98;;;;;;;;;;5070842;28;20346;-78
2021/01/14 05:34:08;;;;;;;6.15;1.20;;;;;;;;;;5071189;28;20024;-79
2021/01/14 05:36:53;;;;;;;5.65;1.52;;;;;;;;;;5072157;28;20457;-79
2021/01/14 05:39:20;;;;;;;5.43;1.40;;;;;;;;;;5070515;28;20024;-79
2021/01/14 05:41:47;;;;;;;5.80;1.30;;;;;;;;;;5068054;28;20134;-79
2021/01/14 05:44:13;;;;;;;8.70;1.20;;;;;;;;;;5069902;28;20016;-79
2021/01/14 05:46:39;;;;;;;5.13;1.13;;;;;;;;;;5070514;28;20020;-79
2021/01/14 05:49:08;;;;;;;15.95;1.50;;;;;;;;;;5070658;28;20456;-79
2021/01/14 05:51:34;;;;;;;9.65;1.85;;;;;;;;;;5070649;28;20496;-78
2021/01/14 05:54:02;;;;;;;7.47;1.48;;;;;;;;;;5072224;28;20468;-78
2021/01/14 05:56:32;;;;;;;10.73;1.58;;;;;;;;;;5070525;28;20511;-78
2021/01/14 05:58:59;;;;;;;6.40;1.60;;;;;;;;;;5070312;28;20056;-78
2021/01/14 06:01:25;;;;;;;6.18;1.27;;;;;;;;;;5071988;28;20052;-78
2021/01/14 06:03:51;;;;;;;5.60;1.42;;;;;;;;;;5072136;28;20020;-78
2021/01/14 06:06:17;;;;;;;8.13;1.75;;;;;;;;;;5074635;28;20033;-79
2021/01/14 06:08:43;;;;;;;6.57;1.27;;;;;;;;;;5074605;28;20024;-79
2021/01/14 06:11:19;;;;;;;8.80;1.38;;;;;;;;;;5075918;28;20125;-78
2021/01/14 06:13:45;;;;;;;6.95;1.67;;;;;;;;;;5075711;28;20027;-78
2021/01/14 06:16:11;;;;;;;5.47;1.33;;;;;;;;;;5074690;28;20070;-78
2021/01/14 06:18:38;;;;;;;5.80;1.33;;;;;;;;;;5075551;28;20021;-78
2021/01/14 06:21:04;;;;;;;7.10;1.50;;;;;;;;;;5075713;28;20021;-78
2021/01/14 06:23:43;;;;;;;4.38;1.02;;;;;;;;;;5075396;28;20023;-78
2021/01/14 06:26:09;;;;;;;6.07;1.08;;;;;;;;;;5074308;28;20021;-78
2021/01/14 06:28:36;;;;;;;12.30;1.50;;;;;;;;;;5075063;28;20471;-78
2021/01/14 06:31:03;;;;;;;10.23;1.88;;;;;;;;;;5074293;28;20515;-80
2021/01/14 06:33:30;;;;;;;8.00;1.52;;;;;;;;;;5075161;28;20037;-78
2021/01/14 06:36:17;;;;;;;9.30;1.08;;;;;;;;;;5073865;28;20023;-78
2021/01/14 06:38:44;;;;;;;4.57;0.90;;;;;;;;;;5073625;28;20024;-79
2021/01/14 06:41:31;;;;;;;5.70;1.27;;;;;;;;;;5075331;28;20016;-78
2021/01/14 06:44:00;;;;;;;6.20;1.10;;;;;;;;;;5074193;28;20130;-79
2021/01/14 06:46:28;;;;;;;4.95;1.20;;;;;;;;;;5073578;28;20024;-79
2021/01/14 06:49:08;;;;;;;6.82;1.10;;;;;;;;;;5075368;28;20055;-79
2021/01/14 06:51:43;;;;;;;4.50;1.27;;;;;;;;;;5073861;28;20369;-80
2021/01/14 06:54:12;;;;;;;6.50;3.20;;;;;;;;;;5075191;28;20267;-79
2021/01/14 06:56:48;;;;;;;5.78;1.48;;;;;;;;;;5073433;28;20026;-79
2021/01/14 06:59:18;;;;;;;3.03;1.17;;;;;;;;;;5073654;28;20017;-79
2021/01/14 07:01:48;;;;;;;6.78;1.10;;;;;;;;;;5074843;28;20453;-79
2021/01/14 07:04:25;;;;;;;8.93;1.35;;;;;;;;;;5073648;28;20016;-79
2021/01/14 07:06:55;;;;;;;5.93;1.00;;;;;;;;;;5074332;28;20365;-78
2021/01/14 07:09:24;;;;;;;9.80;1.13;;;;;;;;;;5073563;28;20461;-78
2021/01/14 07:11:50;;;;;;;9.23;1.50;;;;;;;;;;5072735;28;20055;-78
2021/01/14 07:14:23;;;;;;;10.10;1.58;;;;;;;;;;5073438;28;20013;-79
2021/01/14 07:16:57;;;;;;;8.20;1.58;;;;;;;;;;5073726;28;20028;-78
2021/01/14 07:19:23;;;;;;;6.07;1.33;;;;;;;;;;5073373;28;20449;-79
2021/01/14 07:21:51;;;;;;;5.82;1.35;;;;;;;;;;5073062;28;20017;-78
2021/01/14 07:24:18;;;;;;;6.22;1.42;;;;;;;;;;5073201;28;20024;-78
2021/01/14 07:26:47;;;;;;;7.93;1.75;;;;;;;;;;5074651;28;20236;-78
2021/01/14 07:29:14;;;;;;;6.68;1.90;;;;;;;;;;5073486;28;20017;-78
2021/01/14 07:31:48;;;;;;;5.75;1.30;;;;;;;;;;5072580;28;20029;-79
2021/01/14 07:34:33;;;;;;;3.22;0.95;;;;;;;;;;5073005;28;20048;-79
2021/01/14 07:36:59;;;;;;;5.43;1.10;;;;;;;;;;5072940;28;20461;-78
2021/01/14 07:39:44;;;;;;;5.15;1.13;;;;;;;;;;5072845;28;20031;-79
2021/01/14 07:42:10;;;;;;;9.35;1.85;;;;;;;;;;5072881;28;20049;-79
2021/01/14 07:44:37;;;;;;;7.68;1.10;;;;;;;;;;5072588;28;20020;-79
2021/01/14 07:47:05;;;;;;;8.38;1.20;;;;;;;;;;5072897;28;20017;-79
2021/01/14 07:49:31;;;;;;;6.75;1.20;;;;;;;;;;5072046;28;20345;-78
2021/01/14 07:51:57;;;;;;;7.45;1.40;;;;;;;;;;5069965;28;20082;-78
2021/01/14 07:54:24;;;;;;;5.20;1.50;;;;;;;;;;5063740;28;20029;-78
2021/01/14 07:56:53;;;;;;;5.18;1.13;;;;;;;;;;5061369;28;20071;-79
2021/01/14 07:59:29;;;;;;;5.40;1.05;;;;;;;;;;5063713;28;20020;-79
2021/01/14 08:02:07;;;;;;;4.07;1.85;;;;;;;;;;5068372;28;20024;-79
2021/01/14 08:04:45;;;;;;;9.02;2.60;;;;;;;;;;5073258;28;20040;-82
2021/01/14 08:07:20;;;;;;;7.85;1.63;;;;;;;;;;5059539;28;20476;-81
2021/01/14 08:09:47;;;;;;;11.25;1.98;;;;;;;;;;5059773;28;20074;-81
2021/01/14 08:12:13;;;;;;;9.85;1.50;;;;;;;;;;5061949;28;20059;-81
2021/01/14 08:14:40;;;;;;;9.50;1.63;;;;;;;;;;5060294;28;20429;-81
2021/01/14 08:17:22;;;;;;;10.90;2.13;;;;;;;;;;5063068;28;20457;-81
2021/01/14 08:19:48;;;;;;;10.40;1.83;;;;;;;;;;5062350;28;20036;-81
2021/01/14 08:22:15;;;;;;;5.82;1.38;;;;;;;;;;5060959;28;20017;-82
2021/01/14 08:24:47;;;;;;;10.45;2.20;;;;;;;;;;5059567;28;20023;-81
2021/01/14 08:27:23;;;;;;;6.75;1.50;;;;;;;;;;5061601;28;20117;-81
2021/01/14 08:29:52;;;;;;;6.25;0.90;;;;;;;;;;5062765;28;20039;-81
2021/01/14 08:32:29;;;;;;;13.07;2.03;;;;;;;;;;5052356;28;20052;-81
2021/01/14 08:35:19;;;;;;;8.27;1.70;;;;;;;;;;5058450;28;20029;-80
2021/01/14 08:37:48;;;;;;;12.63;1.97;;;;;;;;;;5045268;28;20039;-80
2021/01/14 08:40:18;;;;;;;9.57;2.15;;;;;;;;;;5060253;28;20102;-78
2021/01/14 08:42:46;;;;;;;8.70;1.77;;;;;;;;;;5060012;28;20175;-80
2021/01/14 08:45:15;;;;;;;6.82;1.75;;;;;;;;;;5059615;28;20128;-80
2021/01/14 08:47:54;;;;;;;10.07;2.40;;;;;;;;;;5065032;28;20024;-80
2021/01/14 08:50:32;;;;;;;7.95;1.77;;;;;;;;;;5072589;28;20021;-81
2021/01/14 08:52:59;;;;;;;10.32;2.00;;;;;;;;;;5071221;28;20461;-80
2021/01/14 08:55:26;;;;;;;11.43;2.05;;;;;;;;;;5074164;28;20476;-80
2021/01/14 08:57:53;;;;;;;6.65;1.77;;;;;;;;;;5073079;28;20021;-80
2021/01/14 09:00:19;;;;;;;8.27;2.25;;;;;;;;;;5071077;28;20020;-80
2021/01/14 09:02:45;;;;;;;8.15;1.80;;;;;;;;;;5070688;28;20035;-80
2021/01/14 09:05:15;;;;;;;9.63;1.70;;;;;;;;;;5072437;28;20020;-80
2021/01/14 09:07:41;;;;;;;7.28;1.80;;;;;;;;;;5071034;28;20523;-79
2021/01/14 09:10:11;;;;;;;16.73;2.60;;;;;;;;;;5071293;28;20480;-80
2021/01/14 09:12:37;;;;;;;11.50;2.47;;;;;;;;;;5071019;28;20016;-81
2021/01/14 09:15:04;;;;;;;5.38;1.63;;;;;;;;;;5072589;28;20486;-80
2021/01/14 09:17:34;;;;;;;5.82;2.03;;;;;;;;;;5072200;28;20020;-81
2021/01/14 09:20:00;;;;;;;15.05;2.20;;;;;;;;;;5071080;28;20032;-80
2021/01/14 09:22:26;;;;;;;9.35;2.15;;;;;;;;;;5062431;28;20021;-80
2021/01/14 09:24:52;;;;;;;9.98;1.90;;;;;;;;;;5052760;28;20056;-80
2021/01/14 09:27:18;;;;;;;8.45;2.10;;;;;;;;;;5052463;28;20070;-79
2021/01/14 09:29:45;;;;;;;11.00;2.58;;;;;;;;;;5055201;28;20016;-80
2021/01/14 09:32:14;;;;;;;9.23;2.03;;;;;;;;;;5060635;28;20044;-80
2021/01/14 09:34:40;;;;;;;12.93;2.10;;;;;;;;;;5059860;28;20017;-80
2021/01/14 09:37:19;;;;;;;7.07;1.90;;;;;;;;;;5059013;28;20081;-80
2021/01/14 09:39:46;;;;;;;9.32;3.08;;;;;;;;;;5051797;28;20028;-80
2021/01/14 09:42:12;;;;;;;12.20;3.00;;;;;;;;;;5051874;28;20065;-80
2021/01/14 09:44:39;;;;;;;8.55;2.45;;;;;;;;;;5051855;28;20021;-79
2021/01/14 09:47:05;;;;;;;6.18;1.98;;;;;;;;;;5050779;28;20025;-80
2021/01/14 09:49:31;;;;;;;14.70;2.92;;;;;;;;;;5049072;28;20013;-79
2021/01/14 09:51:57;;;;;;;18.77;2.95;;;;;;;;;;5049869;28;20492;-81
2021/01/14 09:54:24;;;;;;;8.15;1.73;;;;;;;;;;5051485;28;20025;-82
2021/01/14 09:56:51;;;;;;;4.50;2.08;;;;;;;;;;5052723;28;20166;-81
2021/01/14 09:59:29;;;;;;;8.55;2.55;;;;;;;;;;5053585;28;20457;-76
2021/01/14 10:02:00;;;;;;;4.57;1.40;;;;;;;;;;5063694;28;20020;-78
2021/01/14 10:04:26;;;;;;;12.35;2.22;;;;;;;;;;5071069;28;20028;-79
2021/01/14 10:07:00;;;;;;;8.45;2.00;;;;;;;;;;5073097;28;20212;-79
2021/01/14 10:09:27;;;;;;;6.10;2.20;;;;;;;;;;5070019;28;20449;-78
2021/01/14 10:11:53;;;;;;;8.40;2.20;;;;;;;;;;5071455;28;20020;-77
2021/01/14 10:14:20;;;;;;;5.65;1.90;;;;;;;;;;5071629;28;20024;-78
2021/01/14 10:16:46;;;;;;;10.25;2.75;;;;;;;;;;5070850;28;20031;-78
2021/01/14 10:19:18;;;;;;;6.80;2.10;;;;;;;;;;5065388;28;20338;-78
2021/01/14 10:21:44;;;;;;;9.93;3.40;;;;;;;;;;5061466;28;20078;-77
2021/01/14 10:24:20;;;;;;;8.13;2.90;;;;;;;;;;5059241;28;20021;-77
2021/01/14 10:26:46;;;;;;;9.70;3.35;;;;;;;;;;5059787;28;20017;-77
2021/01/14 10:29:27;;;;;;;8.43;2.08;;;;;;;;;;5061241;28;20012;-77
2021/01/14 10:31:59;;;;;;;10.68;3.03;;;;;;;;;;5059976;28;20029;-77
2021/01/14 10:34:36;;;;;;;7.75;2.50;;;;;;;;;;5059052;28;20025;-78
2021/01/14 10:37:02;;;;;;;8.80;2.85;;;;;;;;;;5064341;28;20027;-81
2021/01/14 10:39:38;;;;;;;6.80;2.00;;;;;;;;;;5059671;28;20106;-81
2021/01/14 10:42:24;;;;;;;10.30;3.58;;;;;;;;;;5062880;28;20106;-82
2021/01/14 10:44:57;;;;;;;12.18;3.53;;;;;;;;;;5057757;28;20032;-81
2021/01/14 10:47:24;;;;;;;6.28;2.67;;;;;;;;;;5059623;28;20021;-79
2021/01/14 10:49:50;;;;;;;10.60;3.67;;;;;;;;;;5063188;28;20720;-79
2021/01/14 10:52:16;;;;;;;11.70;3.13;;;;;;;;;;5068459;28;20119;-79
2021/01/14 10:54:42;;;;;;;13.35;2.58;;;;;;;;;;5070426;28;20052;-79
2021/01/14 10:57:08;;;;;;;9.55;3.25;;;;;;;;;;5055109;28;20465;-82
2021/01/14 10:59:34;;;;;;;9.05;2.72;;;;;;;;;;5062054;28;20461;-79
2021/01/14 11:02:09;;;;;;;10.65;3.85;;;;;;;;;;5070849;28;20457;-81
2021/01/14 11:04:35;;;;;;;8.55;3.17;;;;;;;;;;5067987;28;20457;-82
2021/01/14 11:07:13;;;;;;;6.18;1.85;;;;;;;;;;5075331;28;20019;-81
2021/01/14 11:09:52;;;;;;;9.48;3.15;;;;;;;;;;5075286;28;20024;-79
2021/01/14 11:12:19;;;;;;;11.60;3.05;;;;;;;;;;5075171;28;20473;-79
2021/01/14 11:14:46;;;;;;;8.95;2.70;;;;;;;;;;5075599;28;20025;-78
2021/01/14 11:17:13;;;;;;;10.32;2.17;;;;;;;;;;5075317;28;20016;-78
2021/01/14 11:19:39;;;;;;;8.95;2.47;;;;;;;;;;5074490;28;20066;-79
2021/01/14 11:22:05;;;;;;;7.88;2.70;;;;;;;;;;5054420;28;20024;-78
2021/01/14 11:24:31;;;;;;;9.35;3.17;;;;;;;;;;5054324;28;20029;-78
2021/01/14 11:26:57;;;;;;;10.65;3.38;;;;;;;;;;5056325;28;20021;-78
2021/01/14 11:29:23;;;;;;;7.53;2.47;;;;;;;;;;5054544;28;20021;-78
2021/01/14 11:31:49;;;;;;;7.57;2.40;;;;;;;;;;5054037;28;20052;-78
2021/01/14 11:34:15;;;;;;;14.45;2.78;;;;;;;;;;5055541;28;20083;-79
2021/01/14 11:36:41;;;;;;;9.07;2.72;;;;;;;;;;5053908;28;20017;-80
2021/01/14 11:39:07;;;;;;;14.40;2.97;;;;;;;;;;5054723;28;20099;-82
2021/01/14 11:41:33;;;;;;;9.23;2.88;;;;;;;;;;5054495;28;20370;-82
2021/01/14 11:43:59;;;;;;;12.75;2.95;;;;;;;;;;5054420;28;20032;-79
2021/01/14 11:46:25;;;;;;;6.15;2.33;;;;;;;;;;5054227;28;20031;-79
2021/01/14 11:48:52;;;;;;;7.50;2.83;;;;;;;;;;5059957;28;20021;-81
2021/01/14 11:51:18;;;;;;;11.77;4.03;;;;;;;;;;5075300;28;20024;-80
2021/01/14 11:53:45;;;;;;;9.82;3.20;;;;;;;;;;5076300;28;20024;-81
2021/01/14 11:56:11;;;;;;;7.55;2.90;;;;;;;;;;5091475;28;20016;-78
2021/01/14 11:58:37;;;;;;;6.85;2.38;;;;;;;;;;5081859;28;20066;-77
2021/01/14 12:01:03;;;;;;;12.02;4.07;;;;;;;;;;5088699;28;20020;-77
2021/01/14 12:03:31;;;;;;;8.80;3.13;;;;;;;;;;5076401;28;20047;-77
2021/01/14 12:05:57;;;;;;;8.02;3.42;;;;;;;;;;5088733;28;20079;-77
2021/01/14 12:08:23;;;;;;;11.60;3.40;;;;;;;;;;5083191;28;20024;-78
2021/01/14 12:10:49;;;;;;;10.18;3.75;;;;;;;;;;5080427;28;20016;-80
2021/01/14 12:13:15;;;;;;;15.00;4.03;;;;;;;;;;5084389;28;20027;-81
2021/01/14 12:15:41;;;;;;;9.15;4.22;;;;;;;;;;5089519;28;20031;-80
2021/01/14 12:18:07;;;;;;;11.32;2.92;;;;;;;;;;5080847;28;20012;-79
2021/01/14 12:20:33;;;;;;;12.18;3.28;;;;;;;;;;5073960;28;20017;-79
2021/01/14 12:22:59;;;;;;;9.00;3.58;;;;;;;;;;5052950;28;20032;-80
2021/01/14 12:25:25;;;;;;;10.82;3.78;;;;;;;;;;5089173;28;20016;-80
2021/01/14 12:27:52;;;;;;;8.35;3.08;;;;;;;;;;5078139;28;20012;-78
2021/01/14 12:30:19;;;;;;;7.07;2.55;;;;;;;;;;5084641;28;20039;-80
2021/01/14 12:32:45;;;;;;;6.32;2.75;;;;;;;;;;5083626;28;20028;-81
2021/01/14 12:35:12;;;;;;;8.45;2.45;;;;;;;;;;5059010;28;20056;-81
2021/01/14 12:37:39;;;;;;;9.65;2.45;;;;;;;;;;5051686;28;20385;-81
2021/01/14 12:40:06;;;;;;;6.28;2.22;;;;;;;;;;5051827;28;20025;-81
2021/01/14 12:42:32;;;;;;;7.18;2.58;;;;;;;;;;5051179;28;20041;-79
2021/01/14 12:44:58;;;;;;;7.68;2.20;;;;;;;;;;5052069;28;20053;-79
2021/01/14 12:47:24;;;;;;;8.35;2.65;;;;;;;;;;5058627;28;20064;-81
2021/01/14 12:49:50;;;;;;;9.82;2.33;;;;;;;;;;5059844;28;20017;-80
2021/01/14 12:52:16;;;;;;;6.38;2.30;;;;;;;;;;5056694;28;20033;-81
2021/01/14 12:54:42;;;;;;;13.32;3.45;;;;;;;;;;5068740;28;20048;-80
2021/01/14 12:57:09;;;;;;;6.65;2.88;;;;;;;;;;5060185;28;20057;-80
2021/01/14 12:59:35;;;;;;;11.18;3.17;;;;;;;;;;5062018;28;20110;-80
2021/01/14 13:02:04;;;;;;;6.15;2.28;;;;;;;;;;5058387;28;20020;-80
2021/01/14 13:04:30;;;;;;;6.72;2.90;;;;;;;;;;5061700;28;20070;-80
2021/01/14 13:06:56;;;;;;;7.80;3.38;;;;;;;;;;5064808;28;20021;-80
2021/01/14 13:09:22;;;;;;;6.32;2.15;;;;;;;;;;5065291;28;20029;-80
2021/01/14 13:11:48;;;;;;;6.20;2.15;;;;;;;;;;5060927;28;20074;-80
2021/01/14 13:14:14;;;;;;;8.05;3.30;;;;;;;;;;5057439;28;20021;-80
2021/01/14 13:16:45;;;;;;;7.25;2.13;;;;;;;;;;5060377;28;20012;-81
2021/01/14 13:19:11;;;;;;;;;;;;;;;;;;5061263;28;20017;-80
2021/01/14 13:21:41;;;;;;;7.80;2.78;;;;;;;;;;5055407;28;19900;-80
2021/01/14 13:24:08;;;;;;;5.30;2.08;;;;;;;;;;5055905;28;20372;-82
2021/01/14 13:26:35;;;;;;;6.97;2.40;;;;;;;;;;5052623;28;20025;-81
2021/01/14 13:29:01;;;;;;;8.02;3.20;;;;;;;;;;5059303;28;20028;-81
2021/01/14 13:31:27;;;;;;;5.95;2.83;;;;;;;;;;5059958;28;20061;-80
2021/01/14 13:33:54;;;;;;;5.78;2.05;;;;;;;;;;5065466;28;20028;-81
2021/01/14 13:36:20;;;;;;;5.90;2.80;;;;;;;;;;5062045;28;20024;-81
2021/01/14 13:38:48;;;;;;;5.82;2.80;;;;;;;;;;5059240;28;20024;-80
2021/01/14 13:41:14;;;;;;;7.47;2.47;;;;;;;;;;5058438;28;20032;-81
2021/01/14 13:43:40;;;;;;;6.22;2.97;;;;;;;;;;5060373;28;20128;-81
2021/01/14 13:46:06;;;;;;;5.82;2.70;;;;;;;;;;5061531;28;20013;-81
2021/01/14 13:48:32;;;;;;;7.55;3.22;;;;;;;;;;5057964;28;20025;-81
2021/01/14 13:50:58;;;;;;;7.40;3.00;;;;;;;;;;5061789;28;20517;-80
2021/01/14 13:53:24;;;;;;;8.05;3.28;;;;;;;;;;5052946;28;20112;-80
2021/01/14 13:55:50;;;;;;;11.93;3.47;;;;;;;;;;5050073;28;20060;-82
2021/01/14 13:58:16;;;;;;;9.98;3.83;;;;;;;;;;5050550;28;20399;-81
2021/01/14 14:00:43;;;;;;;7.30;3.00;;;;;;;;;;5050459;28;20508;-82
2021/01/14 14:03:09;;;;;;;9.55;3.65;;;;;;;;;;5050698;28;20365;-81
2021/01/14 14:05:35;;;;;;;7.72;4.18;;;;;;;;;;5050753;28;20078;-81
2021/01/14 14:08:01;;;;;;;9.32;3.72;;;;;;;;;;5049969;28;20013;-82
2021/01/14 14:10:27;;;;;;;8.02;3.70;;;;;;;;;;5050436;28;20017;-81
2021/01/14 14:12:53;;;;;;;7.05;2.90;;;;;;;;;;5050237;28;20409;-83
2021/01/14 14:15:19;;;;;;;8.18;3.42;;;;;;;;;;5050352;28;20071;-83
2021/01/14 14:17:45;;;;;;;9.15;3.10;;;;;;;;;;5050177;28;20164;-82
2021/01/14 14:20:12;;;;;;;8.98;4.10;;;;;;;;;;5056196;28;20476;-83
2021/01/14 14:22:38;;;;;;;10.73;4.28;;;;;;;;;;5070246;28;20456;-82
2021/01/14 14:25:06;;;;;;;8.25;3.90;;;;;;;;;;5070505;28;20066;-82
2021/01/14 14:27:32;;;;;;;7.85;3.97;;;;;;;;;;5075859;28;20017;-82
2021/01/14 14:29:58;;;;;;;9.45;4.30;;;;;;;;;;5073842;28;20510;-84
2021/01/14 14:32:24;;;;;;;8.13;4.80;;;;;;;;;;5074931;28;20028;-82
2021/01/14 14:34:50;;;;;;;10.80;5.38;;;;;;;;;;5075279;28;20067;-83
2021/01/14 14:37:16;;;;;;;8.60;5.15;;;;;;;;;;5074187;28;20150;-83
2021/01/14 14:39:42;;;;;;;11.05;5.80;;;;;;;;;;5074010;28;20017;-83
2021/01/14 14:42:08;;;;;;;10.35;5.50;;;;;;;;;;5073895;28;20041;-83
2021/01/14 14:44:34;;;;;;;9.57;5.57;;;;;;;;;;5074276;28;20020;-84
2021/01/14 14:47:00;;;;;;;17.58;7.32;;;;;;;;;;5073756;28;20360;-83